createdAt,value
2019-02-07T00:02:58.190Z,24.37
2019-02-07T00:06:04.083Z,34.67
2019-02-07T00:09:11.100Z,47.57
2019-02-07T00:12:16.959Z,26.90
2019-02-07T00:15:22.901Z,25.10
2019-02-07T00:18:28.755Z,17.53
2019-02-07T00:21:34.770Z,17.23
2019-02-07T00:24:43.052Z,22.70
2019-02-07T00:27:48.103Z,30.30
2019-02-07T00:30:53.915Z,22.83
2019-02-07T00:33:59.689Z,21.23
2019-02-07T00:37:05.456Z,18.70
2019-02-07T00:40:14.122Z,18.57
2019-02-07T00:43:20.451Z,19.07
2019-02-07T00:46:26.221Z,21.17
2019-02-07T00:49:31.993Z,24.00
2019-02-07T00:52:37.890Z,21.97
2019-02-07T00:55:43.642Z,20.50
2019-02-07T00:58:49.440Z,17.63
2019-02-07T01:01:55.409Z,14.87
2019-02-07T01:05:01.269Z,13.37
2019-02-07T01:08:07.352Z,10.07
2019-02-07T01:11:13.204Z,11.77
2019-02-07T01:14:19.467Z,11.10
2019-02-07T01:17:25.221Z,11.43
2019-02-07T01:20:31.106Z,11.03
2019-02-07T01:23:37.040Z,12.27
2019-02-07T01:26:42.988Z,13.63
2019-02-07T01:29:48.753Z,13.47
2019-02-07T01:32:54.717Z,14.13
2019-02-07T01:36:00.487Z,13.63
2019-02-07T01:39:09.168Z,15.70
2019-02-07T01:42:15.049Z,16.50
2019-02-07T01:45:21.944Z,16.83
2019-02-07T01:48:27.854Z,17.93
2019-02-07T01:51:33.612Z,16.67
2019-02-07T01:54:39.373Z,18.80
2019-02-07T01:57:45.294Z,19.67
2019-02-07T02:00:51.380Z,19.43
2019-02-07T02:03:57.402Z,17.57
2019-02-07T02:07:03.159Z,19.23
2019-02-07T02:10:12.334Z,20.70
2019-02-07T02:13:18.093Z,15.57
2019-02-07T02:16:24.444Z,18.63
2019-02-07T02:19:30.356Z,15.47
2019-02-07T02:22:36.331Z,14.50
2019-02-07T02:25:42.167Z,14.67
2019-02-07T02:28:48.018Z,14.17
2019-02-07T02:31:53.755Z,14.00
2019-02-07T02:34:59.656Z,12.03
2019-02-07T02:38:06.518Z,11.83
2019-02-07T02:41:12.293Z,10.60
2019-02-07T02:44:18.155Z,10.73
2019-02-07T02:47:23.888Z,8.73
2019-02-07T02:50:29.833Z,8.60
2019-02-07T02:53:35.665Z,10.87
2019-02-07T02:56:41.903Z,11.57
2019-02-07T02:59:47.803Z,11.43
2019-02-07T03:03:31.012Z,9.77
2019-02-07T03:06:55.711Z,9.37
2019-02-07T03:10:19.088Z,8.57
2019-02-07T03:13:53.196Z,10.30
2019-02-07T03:17:15.122Z,8.53
2019-02-07T03:20:38.680Z,9.70
2019-02-07T03:24:10.053Z,8.73
2019-02-07T03:27:40.723Z,6.43
2019-02-07T03:31:14.597Z,6.97
2019-02-07T03:34:42.203Z,8.27
2019-02-07T03:37:56.133Z,7.67
2019-02-07T03:41:20.790Z,9.20
2019-02-07T03:44:54.720Z,7.93
2019-02-07T03:48:22.294Z,8.23
2019-02-07T03:51:55.992Z,7.90
2019-02-07T03:55:17.344Z,21.07
2019-02-07T03:58:40.674Z,29.33
2019-02-07T04:02:05.389Z,29.37
2019-02-07T04:05:29.719Z,36.50
2019-02-07T04:08:54.408Z,24.17
2019-02-07T04:12:19.038Z,15.93
2019-02-07T04:15:52.507Z,10.00
2019-02-07T04:19:20.084Z,10.07
2019-02-07T04:22:47.686Z,11.70
2019-02-07T04:26:15.135Z,10.20
2019-02-07T04:29:46.068Z,10.77
2019-02-07T04:33:10.756Z,11.37
2019-02-07T04:36:38.171Z,8.70
2019-02-07T04:40:05.850Z,8.97
2019-02-07T04:43:36.531Z,11.20
2019-02-07T04:47:13.299Z,8.63
2019-02-07T04:50:37.976Z,8.53
2019-02-07T04:54:08.809Z,11.03
2019-02-07T04:57:25.280Z,13.97
2019-02-07T05:00:43.109Z,12.63
2019-02-07T05:04:10.843Z,11.47
2019-02-07T05:07:34.261Z,10.13
2019-02-07T05:10:58.128Z,10.97
2019-02-07T05:14:25.674Z,10.37
2019-02-07T05:17:43.757Z,13.23
2019-02-07T05:21:26.487Z,11.90
2019-02-07T05:25:06.153Z,11.07
2019-02-07T05:28:29.671Z,10.73
2019-02-07T05:32:13.111Z,10.37
2019-02-07T05:35:49.836Z,9.10
2019-02-07T05:39:13.481Z,10.63
2019-02-07T05:42:44.097Z,10.60
2019-02-07T05:46:00.540Z,11.90
2019-02-07T05:49:26.353Z,13.13
2019-02-07T05:52:52.670Z,10.63
2019-02-07T05:56:16.078Z,12.83
2019-02-07T05:59:56.122Z,12.87
2019-02-07T06:03:20.696Z,13.00
2019-02-07T06:06:53.733Z,10.43
2019-02-07T06:10:16.944Z,13.57
2019-02-07T06:13:50.639Z,11.37
2019-02-07T06:17:16.115Z,13.57
2019-02-07T06:20:44.514Z,12.23
2019-02-07T06:24:12.281Z,14.57
2019-02-07T06:27:31.556Z,12.77
2019-02-07T06:30:56.170Z,11.40
2019-02-07T06:34:32.944Z,9.47
2019-02-07T06:38:03.466Z,13.50
2019-02-07T06:41:26.549Z,16.03
2019-02-07T06:44:56.699Z,14.57
2019-02-07T06:48:21.310Z,13.03
2019-02-07T06:51:40.486Z,15.20
2019-02-07T06:55:03.875Z,13.47
2019-02-07T06:58:43.497Z,12.97
2019-02-07T07:02:12.343Z,14.17
2019-02-07T07:05:30.927Z,13.80
2019-02-07T07:08:58.391Z,17.80
2019-02-07T07:12:29.301Z,14.93
2019-02-07T07:16:03.104Z,14.60
2019-02-07T07:19:36.887Z,14.90
2019-02-07T07:23:00.254Z,13.57
2019-02-07T07:26:24.075Z,20.50
2019-02-07T07:29:43.067Z,17.37
2019-02-07T07:33:01.622Z,16.23
2019-02-07T07:36:26.308Z,15.30
2019-02-07T07:39:54.063Z,15.40
2019-02-07T07:43:17.470Z,15.90
2019-02-07T07:46:47.866Z,16.93
2019-02-07T07:50:21.756Z,13.43
2019-02-07T07:53:49.155Z,14.37
2019-02-07T07:57:13.772Z,14.03
2019-02-07T08:00:42.273Z,14.00
2019-02-07T08:04:16.063Z,14.57
2019-02-07T08:07:50.561Z,13.33
2019-02-07T08:11:27.389Z,14.43
2019-02-07T08:14:50.913Z,16.60
2019-02-07T08:18:34.443Z,33.27
2019-02-07T08:22:05.393Z,15.30
2019-02-07T08:25:30.264Z,27.07
2019-02-07T08:28:59.284Z,17.20
2019-02-07T08:32:23.662Z,21.63
2019-02-07T08:35:48.432Z,19.90
2019-02-07T08:39:19.216Z,18.57
2019-02-07T08:42:43.193Z,17.97
2019-02-07T08:46:06.758Z,23.07
2019-02-07T08:49:34.228Z,18.33
2019-02-07T08:53:17.259Z,20.17
2019-02-07T08:56:48.102Z,23.87
2019-02-07T09:00:11.481Z,19.00
2019-02-07T09:03:36.299Z,27.57
2019-02-07T09:07:07.268Z,19.37
2019-02-07T09:10:40.407Z,26.60
2019-02-07T09:13:54.482Z,24.80
2019-02-07T09:17:19.154Z,22.73
2019-02-07T09:20:49.552Z,22.90
2019-02-07T09:24:17.639Z,23.03
2019-02-07T09:27:53.970Z,18.93
2019-02-07T09:31:18.677Z,21.93
2019-02-07T09:34:54.323Z,26.73
2019-02-07T09:38:28.164Z,18.10
2019-02-07T09:41:50.379Z,12.70
2019-02-07T09:45:14.851Z,12.57
2019-02-07T09:48:39.459Z,12.33
2019-02-07T09:52:02.238Z,29.40
2019-02-07T09:55:26.913Z,23.70
2019-02-07T09:58:50.464Z,37.17
2019-02-07T10:02:13.852Z,22.57
2019-02-07T10:05:27.962Z,17.70
2019-02-07T10:08:59.553Z,15.20
2019-02-07T10:12:39.908Z,20.67
2019-02-07T10:16:02.516Z,18.17
2019-02-07T10:19:36.731Z,17.40
2019-02-07T10:23:01.427Z,35.63
2019-02-07T10:26:25.034Z,21.07
2019-02-07T10:30:07.624Z,31.17
2019-02-07T10:33:47.648Z,26.27
2019-02-07T10:37:15.556Z,35.73
2019-02-07T10:40:46.082Z,22.70
2019-02-07T10:44:14.896Z,19.90
2019-02-07T10:47:39.483Z,21.23
2019-02-07T10:51:11.067Z,24.30
2019-02-07T10:54:39.045Z,20.87
2019-02-07T10:58:15.694Z,14.93
2019-02-07T11:01:55.461Z,17.40
2019-02-07T11:05:19.032Z,14.23
2019-02-07T11:08:49.712Z,19.60
2019-02-07T11:12:20.812Z,15.87
2019-02-07T11:15:58.765Z,16.43
2019-02-07T11:19:21.701Z,17.07
2019-02-07T11:22:44.805Z,15.47
2019-02-07T11:26:21.347Z,19.97
2019-02-07T11:29:42.575Z,19.93
2019-02-07T11:32:59.621Z,21.13
2019-02-07T11:36:41.992Z,17.67
2019-02-07T11:40:07.899Z,19.67
2019-02-07T11:43:33.980Z,20.33
2019-02-07T11:47:04.968Z,19.23
2019-02-07T11:50:11.407Z,20.63
2019-02-07T11:53:36.022Z,20.77
2019-02-07T11:56:56.791Z,25.90
2019-02-07T12:00:20.077Z,64.10
2019-02-07T12:03:43.328Z,24.77
2019-02-07T12:07:08.640Z,17.87
2019-02-07T12:10:34.927Z,15.13
2019-02-07T12:14:05.563Z,17.53
2019-02-07T12:17:29.402Z,21.10
2019-02-07T12:20:52.633Z,26.90
2019-02-07T12:24:16.212Z,26.93
2019-02-07T12:27:53.239Z,20.73
2019-02-07T12:31:20.696Z,21.00
2019-02-07T12:34:48.522Z,20.30
2019-02-07T12:38:28.549Z,22.17
2019-02-07T12:41:53.152Z,18.60
2019-02-07T12:45:23.858Z,19.80
2019-02-07T12:48:47.355Z,23.67
2019-02-07T12:52:13.256Z,19.90
2019-02-07T12:55:51.910Z,21.63
2019-02-07T12:59:09.746Z,21.97
2019-02-07T13:02:43.579Z,19.70
2019-02-07T13:06:07.043Z,24.17
2019-02-07T13:09:31.945Z,28.17
2019-02-07T13:12:59.349Z,22.47
2019-02-07T13:16:30.081Z,25.77
2019-02-07T13:20:05.802Z,24.27
2019-02-07T13:23:36.818Z,26.90
2019-02-07T13:27:13.532Z,28.27
2019-02-07T13:30:32.711Z,30.93
2019-02-07T13:34:00.391Z,36.87
2019-02-07T13:37:28.298Z,42.13
2019-02-07T13:41:06.890Z,67.37
2019-02-07T13:44:46.755Z,61.80
2019-02-07T13:48:09.604Z,52.27
2019-02-07T13:51:37.116Z,59.00
2019-02-07T13:55:04.787Z,55.60
2019-02-07T13:58:28.205Z,49.80
2019-02-07T14:01:52.811Z,42.63
2019-02-07T14:05:23.184Z,38.03
2019-02-07T14:08:47.813Z,38.77
2019-02-07T14:12:11.450Z,40.03
2019-02-07T14:15:45.292Z,38.83
2019-02-07T14:19:08.891Z,49.53
2019-02-07T14:22:39.723Z,33.07
2019-02-07T14:26:10.317Z,46.03
2019-02-07T14:29:33.590Z,39.37
2019-02-07T14:32:56.921Z,32.83
2019-02-07T14:36:21.654Z,38.67
2019-02-07T14:39:46.248Z,43.53
2019-02-07T14:43:01.693Z,65.07
2019-02-07T14:46:29.281Z,74.07
2019-02-07T14:49:35.095Z,48.97
2019-02-07T14:52:40.867Z,65.20
2019-02-07T14:55:46.764Z,51.90
2019-02-07T14:58:52.750Z,35.80
2019-02-07T15:01:58.739Z,41.43
2019-02-07T15:05:05.537Z,32.40
2019-02-07T15:08:12.435Z,32.90
2019-02-07T15:11:18.300Z,57.13
2019-02-07T15:14:26.578Z,56.60
2019-02-07T15:17:33.422Z,56.83
2019-02-07T15:20:39.297Z,33.03
2019-02-07T15:23:45.055Z,27.37
2019-02-07T15:26:50.802Z,32.87
2019-02-07T15:29:56.566Z,35.53
2019-02-07T15:33:02.372Z,30.57
2019-02-07T15:36:09.611Z,27.90
2019-02-07T15:39:17.477Z,39.40
2019-02-07T15:42:23.422Z,25.87
2019-02-07T15:45:29.927Z,31.40
2019-02-07T15:48:35.872Z,46.63
2019-02-07T15:51:41.778Z,46.23
2019-02-07T15:54:47.668Z,68.90
2019-02-07T15:57:53.695Z,59.83
2019-02-07T16:01:08.396Z,29.80
2019-02-07T16:04:19.906Z,63.47
2019-02-07T16:07:25.692Z,72.60
2019-02-07T16:10:31.453Z,57.97
2019-02-07T16:13:37.362Z,32.77
2019-02-07T16:16:43.356Z,28.20
2019-02-07T16:19:49.193Z,30.87
2019-02-07T16:22:55.084Z,27.47
2019-02-07T16:26:00.960Z,24.57
2019-02-07T16:29:08.407Z,28.63
2019-02-07T16:32:14.367Z,34.37
2019-02-07T16:35:21.222Z,33.27
2019-02-07T16:38:27.056Z,47.37
2019-02-07T16:41:32.923Z,37.77
2019-02-07T16:44:38.692Z,37.87
2019-02-07T16:47:45.562Z,42.43
2019-02-07T16:50:59.963Z,32.93
2019-02-07T16:53:58.925Z,36.70
2019-02-07T16:57:05.800Z,26.37
2019-02-07T17:00:17.500Z,26.03
2019-02-07T17:03:25.534Z,27.20
2019-02-07T17:06:31.286Z,24.33
2019-02-07T17:09:41.232Z,28.17
2019-02-07T17:12:47.260Z,32.73
2019-02-07T17:15:53.011Z,34.67
2019-02-07T17:18:58.785Z,34.43
2019-02-07T17:22:04.851Z,31.70
2019-02-07T17:25:11.071Z,34.50
2019-02-07T17:28:17.826Z,56.70
2019-02-07T17:31:23.583Z,51.20
2019-02-07T17:34:29.441Z,49.43
2019-02-07T17:37:35.247Z,59.83
2019-02-07T17:40:41.096Z,57.77
2019-02-07T17:43:47.247Z,32.13
2019-02-07T17:46:53.019Z,30.27
2019-02-07T17:49:58.878Z,35.87
2019-02-07T17:53:06.496Z,36.33
2019-02-07T17:56:12.294Z,32.93
2019-02-07T17:59:18.047Z,33.90
2019-02-07T18:02:23.960Z,34.50
2019-02-07T18:05:29.937Z,36.77
2019-02-07T18:08:35.818Z,33.17
2019-02-07T18:11:41.665Z,38.90
2019-02-07T18:14:47.569Z,38.30
2019-02-07T18:17:53.325Z,61.43
2019-02-07T18:20:59.095Z,47.50
2019-02-07T18:24:05.349Z,32.83
2019-02-07T18:27:11.153Z,42.50
2019-02-07T18:30:18.762Z,46.73
2019-02-07T18:33:24.530Z,38.53
2019-02-07T18:36:30.276Z,36.17
2019-02-07T18:39:36.092Z,38.57
2019-02-07T18:42:41.851Z,39.87
2019-02-07T18:45:47.633Z,46.60
2019-02-07T18:48:53.354Z,37.33
2019-02-07T18:51:59.115Z,42.07
2019-02-07T18:55:05.722Z,41.93
2019-02-07T18:58:11.497Z,46.73
2019-02-07T19:01:17.261Z,43.43
2019-02-07T19:04:23.418Z,43.20
2019-02-07T19:07:29.203Z,45.80
2019-02-07T19:10:35.103Z,50.13
2019-02-07T19:13:40.897Z,63.47
2019-02-07T19:16:46.719Z,37.67
2019-02-07T19:19:52.486Z,28.40
2019-02-07T19:22:58.344Z,30.80
2019-02-07T19:26:04.229Z,39.47
2019-02-07T19:29:10.104Z,36.07
2019-02-07T19:32:15.981Z,27.70
2019-02-07T19:35:21.878Z,31.33
2019-02-07T19:38:27.731Z,28.07
2019-02-07T19:41:33.497Z,28.47
2019-02-07T19:44:39.584Z,28.40
2019-02-07T19:47:45.601Z,23.87
2019-02-07T19:50:52.382Z,28.80
2019-02-07T19:53:58.592Z,22.53
2019-02-07T19:57:04.780Z,23.53
2019-02-07T20:00:20.047Z,18.47
2019-02-07T20:03:26.010Z,23.93
2019-02-07T20:06:31.901Z,18.17
2019-02-07T20:09:37.834Z,19.60
2019-02-07T20:12:44.043Z,27.13
2019-02-07T20:15:50.305Z,19.67
2019-02-07T20:18:56.191Z,20.00
2019-02-07T20:22:02.159Z,20.17
2019-02-07T20:25:10.501Z,19.60
2019-02-07T20:28:16.354Z,22.67
2019-02-07T20:31:22.285Z,22.23
2019-02-07T20:34:28.139Z,22.53
2019-02-07T20:37:33.934Z,27.70
2019-02-07T20:40:39.801Z,19.63
2019-02-07T20:43:45.675Z,24.97
2019-02-07T20:46:51.431Z,22.40
2019-02-07T20:49:57.178Z,25.83
2019-02-07T20:53:02.945Z,20.40
2019-02-07T20:56:08.699Z,25.80
2019-02-07T20:59:14.539Z,29.57
2019-02-07T21:02:20.482Z,17.50
2019-02-07T21:05:27.482Z,16.40
2019-02-07T21:08:33.256Z,19.77
2019-02-07T21:11:39.112Z,26.10
2019-02-07T21:14:44.879Z,21.90
2019-02-07T21:17:51.716Z,24.27
2019-02-07T21:20:57.503Z,17.67
2019-02-07T21:24:03.278Z,15.47
2019-02-07T21:27:09.050Z,16.37
2019-02-07T21:30:20.893Z,18.10
2019-02-07T21:33:26.970Z,18.63
2019-02-07T21:36:32.725Z,16.43
2019-02-07T21:39:39.571Z,17.27
2019-02-07T21:42:45.453Z,24.07
2019-02-07T21:45:51.242Z,18.60
2019-02-07T21:48:57.014Z,20.37
2019-02-07T21:52:03.882Z,18.27
2019-02-07T21:55:10.747Z,16.83
2019-02-07T21:58:16.741Z,22.80
2019-02-07T22:01:22.621Z,20.13
2019-02-07T22:04:28.479Z,21.23
2019-02-07T22:07:34.334Z,19.77
2019-02-07T22:10:40.192Z,18.40
2019-02-07T22:13:46.322Z,21.33
2019-02-07T22:16:52.139Z,20.97
2019-02-07T22:19:57.911Z,23.67
2019-02-07T22:23:03.962Z,20.50
2019-02-07T22:26:09.996Z,19.97
2019-02-07T22:29:15.852Z,16.00
2019-02-07T22:32:21.646Z,26.53
2019-02-07T22:35:27.499Z,16.43
2019-02-07T22:38:34.399Z,24.13
2019-02-07T22:41:40.294Z,18.53
2019-02-07T22:44:46.038Z,10.97
2019-02-07T22:47:51.804Z,18.53
2019-02-07T22:50:57.603Z,15.70
2019-02-07T22:54:03.556Z,15.73
2019-02-07T22:57:09.332Z,14.90
2019-02-07T23:01:10.373Z,18.40
2019-02-07T23:04:18.063Z,14.57
2019-02-07T23:07:23.929Z,14.37
2019-02-07T23:10:29.940Z,17.33
2019-02-07T23:13:37.912Z,20.87
2019-02-07T23:16:43.886Z,19.83
2019-02-07T23:19:49.795Z,18.73
2019-02-07T23:22:55.578Z,18.27
2019-02-07T23:26:01.434Z,18.67
2019-02-07T23:29:07.763Z,18.00
2019-02-07T23:32:13.632Z,15.57
2019-02-07T23:35:19.558Z,21.77
2019-02-07T23:38:25.348Z,21.13
2019-02-07T23:41:31.181Z,18.43
2019-02-07T23:44:36.930Z,20.63
2019-02-07T23:47:42.905Z,16.60
2019-02-07T23:50:48.699Z,17.37
2019-02-07T23:53:54.499Z,21.07
2019-02-07T23:57:00.390Z,18.33
